createdAt,value
2016-06-12T00:00:06.995Z,15.59
2016-06-12T00:00:16.995Z,15.57
2016-06-12T00:00:26.995Z,15.62
2016-06-12T00:00:37.014Z,15.59
2016-06-12T00:00:47.014Z,15.6
2016-06-12T00:00:57.014Z,15.57
2016-06-12T00:01:07.029Z,15.62
2016-06-12T00:01:17.029Z,15.54
2016-06-12T00:01:27.045Z,15.59
2016-06-12T00:01:37.064Z,15.64
2016-06-12T00:01:47.048Z,15.59
2016-06-12T00:01:57.048Z,15.59
2016-06-12T00:02:07.064Z,15.57
2016-06-12T00:02:17.064Z,15.54
2016-06-12T00:02:27.079Z,15.57
2016-06-12T00:02:37.082Z,15.59
2016-06-12T00:02:47.098Z,15.47
2016-06-12T00:02:57.082Z,15.6
2016-06-12T00:03:07.098Z,15.59
2016-06-12T00:03:17.098Z,15.57
2016-06-12T00:03:27.098Z,15.57
2016-06-12T00:03:37.117Z,15.57
2016-06-12T00:03:47.117Z,15.62
2016-06-12T00:03:57.132Z,15.65
2016-06-12T00:04:07.117Z,15.59
2016-06-12T00:04:17.132Z,15.6
2016-06-12T00:04:28.367Z,15.57
2016-06-12T00:04:37.151Z,15.5
2016-06-12T00:04:47.635Z,15.59
2016-06-12T00:04:58.120Z,15.57
2016-06-12T00:05:07.151Z,15.53
2016-06-12T00:05:17.166Z,15.56
2016-06-12T00:05:27.182Z,15.6
2016-06-12T00:05:37.279Z,15.64
2016-06-12T00:05:47.169Z,15.59
2016-06-12T00:05:57.185Z,15.59
2016-06-12T00:06:07.185Z,15.59
2016-06-12T00:06:17.201Z,15.6
2016-06-12T00:06:27.044Z,15.6
2016-06-12T00:06:37.205Z,15.6
2016-06-12T00:06:47.220Z,15.59
2016-06-12T00:06:57.220Z,15.62
2016-06-12T00:07:07.220Z,15.59
2016-06-12T00:07:17.236Z,15.57
2016-06-12T00:07:27.236Z,15.6
2016-06-12T00:07:37.239Z,15.57
2016-06-12T00:07:47.083Z,15.57
2016-06-12T00:07:57.255Z,15.59
2016-06-12T00:08:07.255Z,15.62
2016-06-12T00:08:17.270Z,15.62
2016-06-12T00:08:27.270Z,15.51
2016-06-12T00:08:37.298Z,15.56
2016-06-12T00:08:47.314Z,15.59
2016-06-12T00:08:57.314Z,15.62
2016-06-12T00:09:07.314Z,15.59
2016-06-12T00:09:17.314Z,15.59
2016-06-12T00:09:27.314Z,15.62
2016-06-12T00:09:37.371Z,15.62
2016-06-12T00:09:47.371Z,15.57
2016-06-12T00:09:57.387Z,15.64
2016-06-12T00:10:07.387Z,15.62
2016-06-12T00:10:17.403Z,15.6
2016-06-12T00:10:27.387Z,15.47
2016-06-12T00:10:37.444Z,15.64
2016-06-12T00:10:47.444Z,15.62
2016-06-12T00:10:57.459Z,15.6
2016-06-12T00:11:07.459Z,15.59
2016-06-12T00:11:17.459Z,15.59
2016-06-12T00:11:27.459Z,15.64
2016-06-12T00:11:37.516Z,15.64
2016-06-12T00:11:47.516Z,15.6
2016-06-12T00:11:57.516Z,15.59
2016-06-12T00:12:07.532Z,15.6
2016-06-12T00:12:17.375Z,15.59
2016-06-12T00:12:27.532Z,15.56
2016-06-12T00:12:37.588Z,15.59
2016-06-12T00:12:47.588Z,15.59
2016-06-12T00:12:57.588Z,15.59
2016-06-12T00:13:07.588Z,15.57
2016-06-12T00:13:17.604Z,15.59
2016-06-12T00:13:27.604Z,15.57
2016-06-12T00:13:37.644Z,15.57
2016-06-12T00:13:47.644Z,15.6
2016-06-12T00:13:57.644Z,15.6
2016-06-12T00:14:07.644Z,15.59
2016-06-12T00:14:17.660Z,15.59
2016-06-12T00:14:27.660Z,15.62
2016-06-12T00:14:37.676Z,15.59
2016-06-12T00:14:47.692Z,15.64
2016-06-12T00:14:57.707Z,15.59
2016-06-12T00:15:07.707Z,15.6
2016-06-12T00:15:17.707Z,15.57
2016-06-12T00:15:27.723Z,15.51
2016-06-12T00:15:37.741Z,15.62
2016-06-12T00:15:47.741Z,15.44
2016-06-12T00:15:57.741Z,15.57
2016-06-12T00:16:07.741Z,15.54
2016-06-12T00:16:17.741Z,15.6
2016-06-12T00:16:27.757Z,15.6
2016-06-12T00:16:37.773Z,15.54
2016-06-12T00:16:47.773Z,15.62
2016-06-12T00:16:57.788Z,15.59
2016-06-12T00:17:07.788Z,15.49
2016-06-12T00:17:17.804Z,15.6
2016-06-12T00:17:27.804Z,15.67
2016-06-12T00:17:37.821Z,15.53
2016-06-12T00:17:47.821Z,15.59
2016-06-12T00:17:57.836Z,15.54
2016-06-12T00:18:07.836Z,15.62
2016-06-12T00:18:17.852Z,15.59
2016-06-12T00:18:27.836Z,15.56
2016-06-12T00:18:37.863Z,15.59
2016-06-12T00:18:47.863Z,15.54
2016-06-12T00:18:57.879Z,15.62
2016-06-12T00:19:07.957Z,15.59
2016-06-12T00:19:17.879Z,15.59
2016-06-12T00:19:27.894Z,15.56
2016-06-12T00:19:38.652Z,15.57
2016-06-12T00:19:47.902Z,15.64
2016-06-12T00:19:57.918Z,15.6
2016-06-12T00:20:07.918Z,15.6
2016-06-12T00:20:18.168Z,15.53
2016-06-12T00:20:27.934Z,15.49
2016-06-12T00:20:38.738Z,15.49
2016-06-12T00:20:47.942Z,15.59
2016-06-12T00:20:57.942Z,15.49
2016-06-12T00:21:07.957Z,15.6
2016-06-12T00:21:17.957Z,15.57
2016-06-12T00:21:27.957Z,15.54
2016-06-12T00:21:37.981Z,15.51
2016-06-12T00:21:47.825Z,15.51
2016-06-12T00:21:57.981Z,15.53
2016-06-12T00:22:07.996Z,15.39
2016-06-12T00:22:17.996Z,15.59
2016-06-12T00:22:27.996Z,15.54
2016-06-12T00:22:38.020Z,15.46
2016-06-12T00:22:48.020Z,15.53
2016-06-12T00:22:58.020Z,15.49
2016-06-12T00:23:08.036Z,15.47
2016-06-12T00:23:18.036Z,15.54
2016-06-12T00:23:28.067Z,15.51
2016-06-12T00:23:38.042Z,15.41
2016-06-12T00:23:48.057Z,15.53
2016-06-12T00:23:58.057Z,15.35
2016-06-12T00:24:08.057Z,15.46
2016-06-12T00:24:18.073Z,15.56
2016-06-12T00:24:28.073Z,15.54
2016-06-12T00:24:38.078Z,15.49
2016-06-12T00:24:48.078Z,15.51
2016-06-12T00:24:58.094Z,15.43
2016-06-12T00:25:08.094Z,15.46
2016-06-12T00:25:18.109Z,15.49
2016-06-12T00:25:28.125Z,15.46
2016-06-12T00:25:38.114Z,15.5
2016-06-12T00:25:48.130Z,15.5
2016-06-12T00:25:58.130Z,15.46
2016-06-12T00:26:08.130Z,15.44
2016-06-12T00:26:18.130Z,15.44
2016-06-12T00:26:28.145Z,15.49
2016-06-12T00:26:38.150Z,15.46
2016-06-12T00:26:48.166Z,15.5
2016-06-12T00:26:58.166Z,15.43
2016-06-12T00:27:08.166Z,15.44
2016-06-12T00:27:18.166Z,15.49
2016-06-12T00:27:28.182Z,15.47
2016-06-12T00:27:38.187Z,15.49
2016-06-12T00:27:48.187Z,15.39
2016-06-12T00:27:58.202Z,15.44
2016-06-12T00:28:08.202Z,15.44
2016-06-12T00:28:18.202Z,15.38
2016-06-12T00:28:28.218Z,15.44
2016-06-12T00:28:38.222Z,15.44
2016-06-12T00:28:48.222Z,15.35
2016-06-12T00:28:58.238Z,15.46
2016-06-12T00:29:08.238Z,15.41
2016-06-12T00:29:18.253Z,15.47
2016-06-12T00:29:28.253Z,15.41
2016-06-12T00:29:38.257Z,15.49
2016-06-12T00:29:48.257Z,15.5
2016-06-12T00:29:58.257Z,15.51
2016-06-12T00:30:08.288Z,15.46
2016-06-12T00:30:18.273Z,15.44
2016-06-12T00:30:28.273Z,15.44
2016-06-12T00:30:38.291Z,15.36
2016-06-12T00:30:48.291Z,15.46
2016-06-12T00:30:58.291Z,15.39
2016-06-12T00:31:08.307Z,15.46
2016-06-12T00:31:18.307Z,15.35
2016-06-12T00:31:28.307Z,15.38
2016-06-12T00:31:38.639Z,15.41
2016-06-12T00:31:48.327Z,15.41
2016-06-12T00:31:58.327Z,15.38
2016-06-12T00:32:08.342Z,15.43
2016-06-12T00:32:18.358Z,15.41
2016-06-12T00:32:28.342Z,15.34
2016-06-12T00:32:38.361Z,15.44
2016-06-12T00:32:48.361Z,15.39
2016-06-12T00:32:58.361Z,15.41
2016-06-12T00:33:08.377Z,15.43
2016-06-12T00:33:18.377Z,15.38
2016-06-12T00:33:28.377Z,15.36
2016-06-12T00:33:38.381Z,15.38
2016-06-12T00:33:48.396Z,15.38
2016-06-12T00:33:58.396Z,15.38
2016-06-12T00:34:08.396Z,15.36
2016-06-12T00:34:18.412Z,15.39
2016-06-12T00:34:28.459Z,15.35
2016-06-12T00:34:38.712Z,15.34
2016-06-12T00:34:48.430Z,15.32
2016-06-12T00:34:58.805Z,15.32
2016-06-12T00:35:08.430Z,15.35
2016-06-12T00:35:18.727Z,15.43
2016-06-12T00:35:28.524Z,15.32
2016-06-12T00:35:38.512Z,15.39
2016-06-12T00:35:48.512Z,15.31
2016-06-12T00:35:58.465Z,15.29
2016-06-12T00:36:08.465Z,15.34
2016-06-12T00:36:18.465Z,15.31
2016-06-12T00:36:28.480Z,15.32
2016-06-12T00:36:38.484Z,15.32
2016-06-12T00:36:48.484Z,15.34
2016-06-12T00:36:58.500Z,15.34
2016-06-12T00:37:08.500Z,15.34
2016-06-12T00:37:18.500Z,15.31
2016-06-12T00:37:28.516Z,15.32
2016-06-12T00:37:38.519Z,15.29
2016-06-12T00:37:48.519Z,15.35
2016-06-12T00:37:58.534Z,15.32
2016-06-12T00:38:08.534Z,15.31
2016-06-12T00:38:18.534Z,15.36
2016-06-12T00:38:28.534Z,15.34
2016-06-12T00:38:38.553Z,15.32
2016-06-12T00:38:48.553Z,15.32
2016-06-12T00:38:58.553Z,15.32
2016-06-12T00:39:08.568Z,15.32
2016-06-12T00:39:18.568Z,15.32
2016-06-12T00:39:28.568Z,15.36
2016-06-12T00:39:38.588Z,15.35
2016-06-12T00:39:48.588Z,15.21
2016-06-12T00:39:58.588Z,15.28
2016-06-12T00:40:08.604Z,15.25
2016-06-12T00:40:18.604Z,15.2
2016-06-12T00:40:28.604Z,15.28
2016-06-12T00:40:38.606Z,15.23
2016-06-12T00:40:48.621Z,15.28
2016-06-12T00:40:58.621Z,15.23
2016-06-12T00:41:08.637Z,15.27
2016-06-12T00:41:18.637Z,15.28
2016-06-12T00:41:28.637Z,15.29
2016-06-12T00:41:38.641Z,15.2
2016-06-12T00:41:48.657Z,15.27
2016-06-12T00:41:58.657Z,15.27
2016-06-12T00:42:08.657Z,15.27
2016-06-12T00:42:18.672Z,15.25
2016-06-12T00:42:28.672Z,15.27
2016-06-12T00:42:38.674Z,15.27
2016-06-12T00:42:48.690Z,15.27
2016-06-12T00:42:58.690Z,15.25
2016-06-12T00:43:08.690Z,15.16
2016-06-12T00:43:18.705Z,15.27
2016-06-12T00:43:28.705Z,15.27
2016-06-12T00:43:38.709Z,15.29
2016-06-12T00:43:48.725Z,15.28
2016-06-12T00:43:58.725Z,15.2
2016-06-12T00:44:08.725Z,15.2
2016-06-12T00:44:18.741Z,15.17
2016-06-12T00:44:28.741Z,15.21
2016-06-12T00:44:38.744Z,15.21
2016-06-12T00:44:48.744Z,15.25
2016-06-12T00:44:58.759Z,15.19
2016-06-12T00:45:08.759Z,15.27
2016-06-12T00:45:18.759Z,15.2
2016-06-12T00:45:28.775Z,15.29
2016-06-12T00:45:38.778Z,15.25
2016-06-12T00:45:48.778Z,15.16
2016-06-12T00:45:58.794Z,15.2
2016-06-12T00:46:08.794Z,15.23
2016-06-12T00:46:18.794Z,15.25
2016-06-12T00:46:28.809Z,15.23
2016-06-12T00:46:38.812Z,15.13
2016-06-12T00:46:48.812Z,15.14
2016-06-12T00:46:58.828Z,15.17
2016-06-12T00:47:08.828Z,15.11
2016-06-12T00:47:18.828Z,15.16
2016-06-12T00:47:28.843Z,15.14
2016-06-12T00:47:38.846Z,15.13
2016-06-12T00:47:48.846Z,15.16
2016-06-12T00:47:58.862Z,15.2
2016-06-12T00:48:08.862Z,15.14
2016-06-12T00:48:18.862Z,15.16
2016-06-12T00:48:28.862Z,15.16
2016-06-12T00:48:38.881Z,15.13
2016-06-12T00:48:48.881Z,15.2
2016-06-12T00:48:58.881Z,15.2
2016-06-12T00:49:08.896Z,15.2
2016-06-12T00:49:18.896Z,15.11
2016-06-12T00:49:28.896Z,15.1
2016-06-12T00:49:38.916Z,15.19
2016-06-12T00:49:48.760Z,15.13
2016-06-12T00:49:58.932Z,15.13
2016-06-12T00:50:08.916Z,15.14
2016-06-12T00:50:19.416Z,15.1
2016-06-12T00:50:29.619Z,15.2
2016-06-12T00:50:39.090Z,15.2
2016-06-12T00:50:48.949Z,15.16
2016-06-12T00:50:59.121Z,15.28
2016-06-12T00:51:08.949Z,15.17
2016-06-12T00:51:18.965Z,15.21
2016-06-12T00:51:28.965Z,15.25
2016-06-12T00:51:38.969Z,15.13
2016-06-12T00:51:48.984Z,15.11
2016-06-12T00:51:58.984Z,15.19
2016-06-12T00:52:08.984Z,15.09
2016-06-12T00:52:19.000Z,15.14
2016-06-12T00:52:29.000Z,15.21
2016-06-12T00:52:39.002Z,15.16
2016-06-12T00:52:49.002Z,15.17
2016-06-12T00:52:59.018Z,15.14
2016-06-12T00:53:09.018Z,15.19
2016-06-12T00:53:19.033Z,15.1
2016-06-12T00:53:29.033Z,15.03
2016-06-12T00:53:39.037Z,15.13
2016-06-12T00:53:49.037Z,15.13
2016-06-12T00:53:59.053Z,15.17
2016-06-12T00:54:09.053Z,15.07
2016-06-12T00:54:19.053Z,15.14
2016-06-12T00:54:29.069Z,15.07
2016-06-12T00:54:39.072Z,15.09
2016-06-12T00:54:49.072Z,15.13
2016-06-12T00:54:59.087Z,15.13
2016-06-12T00:55:09.087Z,15.14
2016-06-12T00:55:19.087Z,15.09
2016-06-12T00:55:29.103Z,15.13
2016-06-12T00:55:39.105Z,15.1
2016-06-12T00:55:49.105Z,15.14
2016-06-12T00:55:59.120Z,15.14
2016-06-12T00:56:09.120Z,15.16
2016-06-12T00:56:19.120Z,15.13
2016-06-12T00:56:29.136Z,15.11
2016-06-12T00:56:39.140Z,15.09
2016-06-12T00:56:49.140Z,15.11
2016-06-12T00:56:59.140Z,15.11
2016-06-12T00:57:09.156Z,15.07
2016-06-12T00:57:19.156Z,15.06
2016-06-12T00:57:29.156Z,15.1
2016-06-12T00:57:39.174Z,15.11
2016-06-12T00:57:49.174Z,15.09
2016-06-12T00:57:59.174Z,15.1
2016-06-12T00:58:09.190Z,15.11
2016-06-12T00:58:19.190Z,15.11
2016-06-12T00:58:29.190Z,15.09
2016-06-12T00:58:39.193Z,15.06
2016-06-12T00:58:49.209Z,15.13
2016-06-12T00:58:59.209Z,15.09
2016-06-12T00:59:09.209Z,15.07
2016-06-12T00:59:19.224Z,15.11
2016-06-12T00:59:29.224Z,15.1
2016-06-12T00:59:39.227Z,15.07
2016-06-12T00:59:49.243Z,15.1
2016-06-12T00:59:59.243Z,15.03
2016-06-12T01:00:09.243Z,15.1
2016-06-12T01:00:19.258Z,15.03
2016-06-12T01:00:29.258Z,15.01
2016-06-12T01:00:39.261Z,15.09
2016-06-12T01:00:49.277Z,15.06
2016-06-12T01:00:59.277Z,15.09
2016-06-12T01:01:09.277Z,15.06
2016-06-12T01:01:19.293Z,14.99
2016-06-12T01:01:29.136Z,15.03
2016-06-12T01:01:39.296Z,15.07
2016-06-12T01:01:49.311Z,15.1
2016-06-12T01:01:59.311Z,15.02
2016-06-12T01:02:09.311Z,15.07
2016-06-12T01:02:19.311Z,15.07
2016-06-12T01:02:29.327Z,15.07
2016-06-12T01:02:39.330Z,14.98
2016-06-12T01:02:49.330Z,15.06
2016-06-12T01:02:59.346Z,15.07
2016-06-12T01:03:09.346Z,15.03
2016-06-12T01:03:19.346Z,15.07
2016-06-12T01:03:29.377Z,15.11
2016-06-12T01:03:39.365Z,14.98
2016-06-12T01:03:49.365Z,15.02
2016-06-12T01:03:59.381Z,15.03
2016-06-12T01:04:09.381Z,15.06
2016-06-12T01:04:19.381Z,15.02
2016-06-12T01:04:29.396Z,15.06
2016-06-12T01:04:39.398Z,15.07
2016-06-12T01:04:49.539Z,15.03
2016-06-12T01:05:00.352Z,14.94
2016-06-12T01:05:09.414Z,15.1
2016-06-12T01:05:19.273Z,15.09
2016-06-12T01:05:29.773Z,15.09
2016-06-12T01:05:40.073Z,14.96
2016-06-12T01:05:50.105Z,15.01
2016-06-12T01:05:59.433Z,15.03
2016-06-12T01:06:09.448Z,14.96
2016-06-12T01:06:19.464Z,15.09
2016-06-12T01:06:29.464Z,14.94
2016-06-12T01:06:39.467Z,15.03
2016-06-12T01:06:49.467Z,14.99
2016-06-12T01:06:59.483Z,14.96
2016-06-12T01:07:09.483Z,14.95
2016-06-12T01:07:19.483Z,15.03
2016-06-12T01:07:29.483Z,14.98
2016-06-12T01:07:39.502Z,15.07
2016-06-12T01:07:49.502Z,14.96
2016-06-12T01:07:59.502Z,15.07
2016-06-12T01:08:09.502Z,14.99
2016-06-12T01:08:19.518Z,14.96
2016-06-12T01:08:29.518Z,14.96
2016-06-12T01:08:39.520Z,14.99
2016-06-12T01:08:49.535Z,14.94
2016-06-12T01:08:59.535Z,14.94
2016-06-12T01:09:09.535Z,14.96
2016-06-12T01:09:19.551Z,14.91
2016-06-12T01:09:29.551Z,14.94
2016-06-12T01:09:39.555Z,15.02
2016-06-12T01:09:49.555Z,14.94
2016-06-12T01:09:59.571Z,14.91
2016-06-12T01:10:09.586Z,14.94
2016-06-12T01:10:19.571Z,15.09
2016-06-12T01:10:29.586Z,14.98
2016-06-12T01:10:39.589Z,14.94
2016-06-12T01:10:49.605Z,14.95
2016-06-12T01:10:59.605Z,15.02
2016-06-12T01:11:09.605Z,14.94
2016-06-12T01:11:19.605Z,14.94
2016-06-12T01:11:29.621Z,14.91
2016-06-12T01:11:39.623Z,15.02
2016-06-12T01:11:49.623Z,15.06
2016-06-12T01:11:59.638Z,14.96
2016-06-12T01:12:09.638Z,14.95
2016-06-12T01:12:19.638Z,15.02
2016-06-12T01:12:29.654Z,14.94
2016-06-12T01:12:39.658Z,14.91
2016-06-12T01:12:49.658Z,14.96
2016-06-12T01:12:59.658Z,14.96
2016-06-12T01:13:09.673Z,14.96
2016-06-12T01:13:19.673Z,14.98
2016-06-12T01:13:29.673Z,14.94
2016-06-12T01:13:39.692Z,14.96
2016-06-12T01:13:49.692Z,14.96
2016-06-12T01:13:59.692Z,14.91
2016-06-12T01:14:09.708Z,14.99
2016-06-12T01:14:19.708Z,14.95
2016-06-12T01:14:29.708Z,14.95
2016-06-12T01:14:39.726Z,14.88
2016-06-12T01:14:49.726Z,14.94
2016-06-12T01:14:59.726Z,14.95
2016-06-12T01:15:09.742Z,14.99
2016-06-12T01:15:19.742Z,14.89
2016-06-12T01:15:29.742Z,14.95
2016-06-12T01:15:39.605Z,14.94
2016-06-12T01:15:49.762Z,15.02
2016-06-12T01:15:59.762Z,14.89
2016-06-12T01:16:09.777Z,14.92
2016-06-12T01:16:19.777Z,14.98
2016-06-12T01:16:29.777Z,15.01
2016-06-12T01:16:39.779Z,14.95
2016-06-12T01:16:49.795Z,14.99
2016-06-12T01:16:59.795Z,14.95
2016-06-12T01:17:09.795Z,14.96
2016-06-12T01:17:19.810Z,14.96
2016-06-12T01:17:29.810Z,15.02
2016-06-12T01:17:39.814Z,14.94
2016-06-12T01:17:49.814Z,14.95
2016-06-12T01:17:59.830Z,14.95
2016-06-12T01:18:09.830Z,14.88
2016-06-12T01:18:19.846Z,14.91
2016-06-12T01:18:29.846Z,14.99
2016-06-12T01:18:39.848Z,14.92
2016-06-12T01:18:49.863Z,15.01
2016-06-12T01:18:59.863Z,14.99
2016-06-12T01:19:09.863Z,14.96
2016-06-12T01:19:19.863Z,14.89
2016-06-12T01:19:29.879Z,14.98
2016-06-12T01:19:39.882Z,14.94
2016-06-12T01:19:50.007Z,14.92
2016-06-12T01:19:59.898Z,15.03
2016-06-12T01:20:09.741Z,15.03
2016-06-12T01:20:19.898Z,14.96
2016-06-12T01:20:29.773Z,14.92
2016-06-12T01:20:39.916Z,14.92
2016-06-12T01:20:49.760Z,14.94
2016-06-12T01:20:59.916Z,14.91
2016-06-12T01:21:09.932Z,14.83
2016-06-12T01:21:19.776Z,14.98
2016-06-12T01:21:29.932Z,14.96
2016-06-12T01:21:39.950Z,14.92
2016-06-12T01:21:49.950Z,14.91
2016-06-12T01:21:59.950Z,14.95
2016-06-12T01:22:09.966Z,14.91
2016-06-12T01:22:19.966Z,14.95
2016-06-12T01:22:29.982Z,14.95
2016-06-12T01:22:39.986Z,14.84
2016-06-12T01:22:50.001Z,14.96
2016-06-12T01:22:59.986Z,14.94
2016-06-12T01:23:10.001Z,14.95
2016-06-12T01:23:20.001Z,14.94
2016-06-12T01:23:30.001Z,14.92
2016-06-12T01:23:40.004Z,14.95
2016-06-12T01:23:50.020Z,14.94
2016-06-12T01:24:00.020Z,14.94
2016-06-12T01:24:10.020Z,14.95
2016-06-12T01:24:20.036Z,14.92
2016-06-12T01:24:30.036Z,14.96
2016-06-12T01:24:40.039Z,14.95
2016-06-12T01:24:50.054Z,14.91
2016-06-12T01:25:00.054Z,14.95
2016-06-12T01:25:10.054Z,14.86
2016-06-12T01:25:20.070Z,14.89
2016-06-12T01:25:30.070Z,14.86
2016-06-12T01:25:40.073Z,14.89
2016-06-12T01:25:50.088Z,14.84
2016-06-12T01:26:00.088Z,14.92
2016-06-12T01:26:10.088Z,14.95
2016-06-12T01:26:20.104Z,14.84
2016-06-12T01:26:30.104Z,14.83
2016-06-12T01:26:40.123Z,14.86
2016-06-12T01:26:50.107Z,14.86
2016-06-12T01:27:00.123Z,14.81
2016-06-12T01:27:10.123Z,14.92
2016-06-12T01:27:20.123Z,14.91
2016-06-12T01:27:30.138Z,14.96
2016-06-12T01:27:40.141Z,14.92
2016-06-12T01:27:50.141Z,14.86
2016-06-12T01:28:00.157Z,14.94
2016-06-12T01:28:10.157Z,14.86
2016-06-12T01:28:20.157Z,14.92
2016-06-12T01:28:30.173Z,14.91
2016-06-12T01:28:40.176Z,14.84
2016-06-12T01:28:50.176Z,14.94
2016-06-12T01:29:00.176Z,14.89
2016-06-12T01:29:10.191Z,14.86
2016-06-12T01:29:20.191Z,14.91
2016-06-12T01:29:30.207Z,14.94
2016-06-12T01:29:40.210Z,14.96
2016-06-12T01:29:50.210Z,14.8
2016-06-12T01:30:00.210Z,14.91
2016-06-12T01:30:10.225Z,14.96
2016-06-12T01:30:20.225Z,14.86
2016-06-12T01:30:30.225Z,14.98
2016-06-12T01:30:40.245Z,14.98
2016-06-12T01:30:50.245Z,14.96
2016-06-12T01:31:00.245Z,14.84
2016-06-12T01:31:10.261Z,14.91
2016-06-12T01:31:20.261Z,14.94
2016-06-12T01:31:30.261Z,14.99
2016-06-12T01:31:40.263Z,14.89
2016-06-12T01:31:50.278Z,14.83
2016-06-12T01:32:00.278Z,14.95
2016-06-12T01:32:10.278Z,14.88
2016-06-12T01:32:20.294Z,14.95
2016-06-12T01:32:30.294Z,14.95
2016-06-12T01:32:40.297Z,14.99
2016-06-12T01:32:50.156Z,14.88
2016-06-12T01:33:00.313Z,14.92
2016-06-12T01:33:10.313Z,14.94
2016-06-12T01:33:20.328Z,14.94
2016-06-12T01:33:30.328Z,14.86
2016-06-12T01:33:40.332Z,14.95
2016-06-12T01:33:50.348Z,14.92
2016-06-12T01:34:00.348Z,14.89
2016-06-12T01:34:10.363Z,14.84
2016-06-12T01:34:20.348Z,14.83
2016-06-12T01:34:30.363Z,14.95
2016-06-12T01:34:40.366Z,14.92
2016-06-12T01:34:50.382Z,14.94
2016-06-12T01:35:00.226Z,14.86
2016-06-12T01:35:10.648Z,14.91
2016-06-12T01:35:21.320Z,14.96
2016-06-12T01:35:30.991Z,14.96
2016-06-12T01:35:40.401Z,14.92
2016-06-12T01:35:50.541Z,14.89
2016-06-12T01:36:00.416Z,14.91
2016-06-12T01:36:10.416Z,14.95
2016-06-12T01:36:20.416Z,14.89
2016-06-12T01:36:30.432Z,14.99
2016-06-12T01:36:40.435Z,14.84
2016-06-12T01:36:50.435Z,14.91
2016-06-12T01:37:00.435Z,14.94
2016-06-12T01:37:10.451Z,14.88
2016-06-12T01:37:20.451Z,14.91
2016-06-12T01:37:30.294Z,14.84
2016-06-12T01:37:40.469Z,14.83
2016-06-12T01:37:50.469Z,14.81
2016-06-12T01:38:00.469Z,14.92
2016-06-12T01:38:10.485Z,14.94
2016-06-12T01:38:20.329Z,14.96
2016-06-12T01:38:30.485Z,14.8
2016-06-12T01:38:40.503Z,14.83
2016-06-12T01:38:50.503Z,14.84
2016-06-12T01:39:00.503Z,14.86
2016-06-12T01:39:10.519Z,14.94
2016-06-12T01:39:20.519Z,14.8
2016-06-12T01:39:30.519Z,14.89
2016-06-12T01:39:40.522Z,14.83
2016-06-12T01:39:50.538Z,14.89
2016-06-12T01:40:00.538Z,14.92
2016-06-12T01:40:10.538Z,14.88
2016-06-12T01:40:20.553Z,14.84
2016-06-12T01:40:30.553Z,14.83
2016-06-12T01:40:40.557Z,14.81
2016-06-12T01:40:50.589Z,14.89
2016-06-12T01:41:00.573Z,14.81
2016-06-12T01:41:10.573Z,14.83
2016-06-12T01:41:20.589Z,14.89
2016-06-12T01:41:30.589Z,14.86
2016-06-12T01:41:40.591Z,14.88
2016-06-12T01:41:50.606Z,14.86
2016-06-12T01:42:00.606Z,14.92
2016-06-12T01:42:10.606Z,14.84
2016-06-12T01:42:20.622Z,14.88
2016-06-12T01:42:30.622Z,14.83
2016-06-12T01:42:40.625Z,14.84
2016-06-12T01:42:50.640Z,14.89
2016-06-12T01:43:00.640Z,14.89
2016-06-12T01:43:10.640Z,14.88
2016-06-12T01:43:20.656Z,14.88
2016-06-12T01:43:30.656Z,14.86
2016-06-12T01:43:40.659Z,14.83
2016-06-12T01:43:50.659Z,14.78
2016-06-12T01:44:00.659Z,14.92
2016-06-12T01:44:10.675Z,14.91
2016-06-12T01:44:20.675Z,14.81
2016-06-12T01:44:30.690Z,14.77
2016-06-12T01:44:40.694Z,14.86
2016-06-12T01:44:50.694Z,14.83
2016-06-12T01:45:00.694Z,14.81
2016-06-12T01:45:10.710Z,14.84
2016-06-12T01:45:20.710Z,14.81
2016-06-12T01:45:30.710Z,14.78
2016-06-12T01:45:40.729Z,14.81
2016-06-12T01:45:50.729Z,14.81
2016-06-12T01:46:00.729Z,14.75
2016-06-12T01:46:10.744Z,14.81
2016-06-12T01:46:20.744Z,14.86
2016-06-12T01:46:30.744Z,14.8
2016-06-12T01:46:40.762Z,14.84
2016-06-12T01:46:50.762Z,14.8
2016-06-12T01:47:00.762Z,14.78
2016-06-12T01:47:10.777Z,14.77
2016-06-12T01:47:20.793Z,14.72
2016-06-12T01:47:30.777Z,14.69
2016-06-12T01:47:40.781Z,14.81
2016-06-12T01:47:50.797Z,14.72
2016-06-12T01:48:00.797Z,14.77
2016-06-12T01:48:10.797Z,14.73
2016-06-12T01:48:20.797Z,14.8
2016-06-12T01:48:30.813Z,14.81
2016-06-12T01:48:40.831Z,14.68
2016-06-12T01:48:50.816Z,14.7
2016-06-12T01:49:00.831Z,14.75
2016-06-12T01:49:10.831Z,14.73
2016-06-12T01:49:20.831Z,14.77
2016-06-12T01:49:30.847Z,14.65
2016-06-12T01:49:40.850Z,14.72
2016-06-12T01:49:50.928Z,14.69
2016-06-12T01:50:00.944Z,14.7
2016-06-12T01:50:10.866Z,14.69
2016-06-12T01:50:21.100Z,14.7
2016-06-12T01:50:30.881Z,14.65
2016-06-12T01:50:40.900Z,14.65
2016-06-12T01:50:50.884Z,14.73
2016-06-12T01:51:00.900Z,14.75
2016-06-12T01:51:10.900Z,14.75
2016-06-12T01:51:20.900Z,14.69
2016-06-12T01:51:30.915Z,14.69
2016-06-12T01:51:40.918Z,14.73
2016-06-12T01:51:50.934Z,14.73
2016-06-12T01:52:00.918Z,14.62
2016-06-12T01:52:10.934Z,14.68
2016-06-12T01:52:20.934Z,14.72
2016-06-12T01:52:30.934Z,14.7
2016-06-12T01:52:40.953Z,14.72
2016-06-12T01:52:50.953Z,14.73
2016-06-12T01:53:00.953Z,14.73
2016-06-12T01:53:10.968Z,14.72
2016-06-12T01:53:20.968Z,14.64
2016-06-12T01:53:30.968Z,14.72
2016-06-12T01:53:40.971Z,14.69
2016-06-12T01:53:50.987Z,14.65
2016-06-12T01:54:01.003Z,14.72
2016-06-12T01:54:11.003Z,14.72
2016-06-12T01:54:21.003Z,14.77
2016-06-12T01:54:31.003Z,14.69
2016-06-12T01:54:41.007Z,14.7
2016-06-12T01:54:51.022Z,14.78
2016-06-12T01:55:01.022Z,14.7
2016-06-12T01:55:11.038Z,14.73
2016-06-12T01:55:21.038Z,14.64
2016-06-12T01:55:31.038Z,14.72
2016-06-12T01:55:41.055Z,14.68
2016-06-12T01:55:51.055Z,14.7
2016-06-12T01:56:01.055Z,14.72
2016-06-12T01:56:11.055Z,14.73
2016-06-12T01:56:21.071Z,14.77
2016-06-12T01:56:31.071Z,14.64
2016-06-12T01:56:41.074Z,14.73
2016-06-12T01:56:51.090Z,14.7
2016-06-12T01:57:01.105Z,14.62
2016-06-12T01:57:11.090Z,14.69
2016-06-12T01:57:21.090Z,14.68
2016-06-12T01:57:31.105Z,14.77
2016-06-12T01:57:41.109Z,14.68
2016-06-12T01:57:51.109Z,14.68
2016-06-12T01:58:01.109Z,14.68
2016-06-12T01:58:11.125Z,14.72
2016-06-12T01:58:21.125Z,14.65
2016-06-12T01:58:31.141Z,14.65
2016-06-12T01:58:41.143Z,14.65
2016-06-12T01:58:51.158Z,14.65
2016-06-12T01:59:01.143Z,14.64
2016-06-12T01:59:11.158Z,14.68
2016-06-12T01:59:21.174Z,14.69
2016-06-12T01:59:31.158Z,14.72
2016-06-12T01:59:41.178Z,14.64
2016-06-12T01:59:51.178Z,14.68
2016-06-12T02:00:01.178Z,14.64
2016-06-12T02:00:11.193Z,14.75
2016-06-12T02:00:21.053Z,14.68
2016-06-12T02:00:31.381Z,14.64
2016-06-12T02:00:41.275Z,14.65
2016-06-12T02:00:51.321Z,14.7
2016-06-12T02:01:01.290Z,14.64
2016-06-12T02:01:11.525Z,14.69
2016-06-12T02:01:21.806Z,14.64
2016-06-12T02:01:31.337Z,14.7
2016-06-12T02:01:41.293Z,14.6
2016-06-12T02:01:51.340Z,14.68
2016-06-12T02:02:01.340Z,14.68
2016-06-12T02:02:11.324Z,14.64
2016-06-12T02:02:21.371Z,14.72
2016-06-12T02:02:31.262Z,14.69
2016-06-12T02:02:41.312Z,14.7
2016-06-12T02:02:51.327Z,14.65
2016-06-12T02:03:01.390Z,14.7
2016-06-12T02:03:11.281Z,14.69
2016-06-12T02:03:21.281Z,14.7
2016-06-12T02:03:31.296Z,14.68
2016-06-12T02:03:41.299Z,14.72
2016-06-12T02:03:51.315Z,14.73
2016-06-12T02:04:01.315Z,14.75
2016-06-12T02:04:11.315Z,14.72
2016-06-12T02:04:21.315Z,14.64
2016-06-12T02:04:31.330Z,14.7
2016-06-12T02:04:41.333Z,14.68
2016-06-12T02:04:51.333Z,14.65
2016-06-12T02:05:01.365Z,14.69
2016-06-12T02:05:11.349Z,14.61
2016-06-12T02:05:21.349Z,14.64
2016-06-12T02:05:31.365Z,14.72
2016-06-12T02:05:41.383Z,14.68
2016-06-12T02:05:51.383Z,14.73
2016-06-12T02:06:01.383Z,14.72
2016-06-12T02:06:11.383Z,14.68
2016-06-12T02:06:21.383Z,14.68
2016-06-12T02:06:31.399Z,14.69
2016-06-12T02:06:41.246Z,14.68
2016-06-12T02:06:52.746Z,14.72
2016-06-12T02:07:01.402Z,14.72
2016-06-12T02:07:11.418Z,14.65
2016-06-12T02:07:21.418Z,14.69
2016-06-12T02:07:31.418Z,14.62
2016-06-12T02:07:41.436Z,14.7
2016-06-12T02:07:51.436Z,14.7
2016-06-12T02:08:01.436Z,14.69
2016-06-12T02:08:11.436Z,14.65
2016-06-12T02:08:21.452Z,14.61
2016-06-12T02:08:31.452Z,14.65
2016-06-12T02:08:41.471Z,14.64
2016-06-12T02:08:51.471Z,14.58
2016-06-12T02:09:01.471Z,14.7
2016-06-12T02:09:11.471Z,14.73
2016-06-12T02:09:21.487Z,14.72